createdAt,value
2022-09-05T00:02:04.961Z,1.58
2022-09-05T00:05:08.098Z,1.30
2022-09-05T00:07:59.115Z,1.40
2022-09-05T00:11:41.598Z,1.30
2022-09-05T00:14:07.422Z,1.20
2022-09-05T00:17:16.122Z,1.35
2022-09-05T00:24:26.945Z,1.55
2022-09-05T00:24:27.483Z,1.35
2022-09-05T00:26:50.003Z,1.10
2022-09-05T00:31:07.768Z,1.48
2022-09-05T00:33:27.576Z,1.42
2022-09-05T00:36:41.099Z,1.63
2022-09-05T00:39:32.017Z,1.42
2022-09-05T00:42:18.408Z,1.40
2022-09-05T00:45:23.687Z,1.20
2022-09-05T00:48:24.824Z,1.50
2022-09-05T00:50:58.124Z,1.30
2022-09-05T00:53:41.075Z,1.38
2022-09-05T00:56:50.474Z,1.50
2022-09-05T01:00:13.694Z,1.15
2022-09-05T01:03:21.216Z,1.35
2022-09-05T01:06:17.264Z,1.10
2022-09-05T01:09:24.994Z,1.45
2022-09-05T01:12:08.960Z,1.20
2022-09-05T01:15:05.703Z,1.40
2022-09-05T01:18:19.466Z,1.20
2022-09-05T01:21:25.252Z,1.48
2022-09-05T01:24:10.648Z,1.17
2022-09-05T01:26:50.246Z,1.40
2022-09-05T01:29:56.706Z,1.27
2022-09-05T01:32:41.488Z,1.30
2022-09-05T01:36:04.023Z,1.20
2022-09-05T01:40:11.659Z,1.35
2022-09-05T01:42:14.353Z,1.00
2022-09-05T01:45:04.415Z,1.40
2022-09-05T01:48:10.494Z,1.50
2022-09-05T01:50:44.862Z,1.13
2022-09-05T01:53:51.136Z,1.33
2022-09-05T01:56:56.617Z,1.77
2022-09-05T01:59:49.383Z,1.42
2022-09-05T02:02:50.304Z,1.65
2022-09-05T02:05:48.846Z,1.40
2022-09-05T02:08:40.994Z,1.20
2022-09-05T02:11:11.577Z,1.40
2022-09-05T02:13:40.273Z,1.50
2022-09-05T02:16:33.143Z,1.58
2022-09-05T02:19:09.008Z,1.50
2022-09-05T02:21:56.224Z,1.60
2022-09-05T02:24:49.801Z,1.45
2022-09-05T02:28:06.162Z,1.48
2022-09-05T02:30:58.084Z,1.48
2022-09-05T02:33:50.250Z,1.38
2022-09-05T02:36:48.705Z,1.40
2022-09-05T02:45:00.200Z,1.35
2022-09-05T02:45:09.515Z,1.33
2022-09-05T02:45:50.716Z,1.25
2022-09-05T02:50:55.781Z,1.67
2022-09-05T02:57:37.799Z,1.33
2022-09-05T02:57:46.894Z,1.17
2022-09-05T02:58:42.778Z,1.27
2022-09-05T03:01:58.088Z,1.45
2022-09-05T03:04:52.917Z,1.08
2022-09-05T03:07:49.213Z,1.52
2022-09-05T03:10:53.593Z,1.35
2022-09-05T03:14:18.459Z,1.70
2022-09-05T03:17:09.484Z,1.38
2022-09-05T03:19:54.219Z,1.52
2022-09-05T03:23:03.921Z,1.48
2022-09-05T03:26:16.440Z,1.38
2022-09-05T03:29:33.239Z,1.50
2022-09-05T03:32:49.731Z,1.27
2022-09-05T03:35:51.402Z,1.40
2022-09-05T03:38:51.520Z,1.30
2022-09-05T03:41:40.422Z,1.45
2022-09-05T03:45:05.367Z,1.70
2022-09-05T03:48:24.691Z,1.52
2022-09-05T03:57:20.205Z,1.50
2022-09-05T03:57:22.992Z,1.67
2022-09-05T03:58:36.783Z,1.73
2022-09-05T04:02:56.573Z,1.90
2022-09-05T04:08:18.711Z,1.65
2022-09-05T04:08:23.677Z,1.73
2022-09-05T04:10:54.148Z,1.65
2022-09-05T04:13:50.371Z,2.00
2022-09-05T04:16:31.139Z,1.67
2022-09-05T04:19:42.821Z,2.28
2022-09-05T04:22:50.150Z,2.10
2022-09-05T04:25:41.516Z,2.28
2022-09-05T04:28:59.546Z,1.88
2022-09-05T04:32:17.882Z,2.00
2022-09-05T04:35:30.837Z,2.08
2022-09-05T04:38:17.835Z,1.50
2022-09-05T04:41:39.536Z,1.75
2022-09-05T04:44:17.317Z,1.85
2022-09-05T04:47:12.489Z,1.85
2022-09-05T04:50:00.517Z,1.85
2022-09-05T04:52:52.071Z,1.60
2022-09-05T04:55:46.865Z,1.67
2022-09-05T04:59:55.277Z,1.80
2022-09-05T05:05:59.853Z,2.13
2022-09-05T05:06:09.242Z,1.42
2022-09-05T05:07:26.270Z,1.80
2022-09-05T05:11:04.530Z,2.08
2022-09-05T05:17:56.572Z,1.60
2022-09-05T05:17:59.868Z,1.52
2022-09-05T05:19:23.449Z,2.00
2022-09-05T05:21:56.360Z,1.80
2022-09-05T05:24:33.732Z,2.40
2022-09-05T05:27:15.558Z,2.10
2022-09-05T05:30:03.530Z,2.28
2022-09-05T05:32:46.766Z,2.28
2022-09-05T05:35:33.372Z,1.95
2022-09-05T05:38:52.732Z,2.50
2022-09-05T05:41:44.725Z,2.15
2022-09-05T05:44:34.812Z,1.90
2022-09-05T05:47:12.000Z,3.17
2022-09-05T05:49:57.658Z,2.05
2022-09-05T05:52:52.251Z,2.05
2022-09-05T05:55:51.695Z,1.88
2022-09-05T05:58:32.928Z,2.08
2022-09-05T06:01:38.254Z,2.17
2022-09-05T06:05:03.941Z,1.98
2022-09-05T06:10:39.053Z,2.65
2022-09-05T06:14:57.128Z,2.22
2022-09-05T06:15:11.540Z,2.65
2022-09-05T06:18:21.098Z,2.40
2022-09-05T06:22:07.252Z,2.40
2022-09-05T06:25:19.556Z,2.78
2022-09-05T06:28:27.751Z,2.28
2022-09-05T06:31:37.424Z,2.50
2022-09-05T06:34:40.462Z,2.88
2022-09-05T06:37:19.832Z,3.30
2022-09-05T06:40:39.137Z,2.95
2022-09-05T06:43:24.505Z,2.47
2022-09-05T06:46:54.900Z,2.03
2022-09-05T06:49:46.067Z,2.25
2022-09-05T06:53:13.957Z,2.08
2022-09-05T06:55:58.734Z,2.30
2022-09-05T06:59:27.216Z,2.30
2022-09-05T07:02:44.330Z,3.03
2022-09-05T07:05:42.579Z,3.17
2022-09-05T07:08:39.236Z,3.50
2022-09-05T07:11:18.846Z,2.78
2022-09-05T07:14:26.917Z,2.85
2022-09-05T07:17:16.585Z,2.45
2022-09-05T07:21:12.183Z,2.60
2022-09-05T07:24:06.278Z,2.35
2022-09-05T07:26:53.602Z,3.20
2022-09-05T07:29:52.467Z,1.95
2022-09-05T07:32:33.362Z,1.92
2022-09-05T07:35:04.242Z,2.28
2022-09-05T07:37:41.968Z,2.05
2022-09-05T07:40:26.950Z,1.73
2022-09-05T07:43:10.599Z,1.90
2022-09-05T07:46:13.684Z,1.92
2022-09-05T07:48:51.026Z,1.60
2022-09-05T07:56:49.253Z,1.60
2022-09-05T07:56:55.290Z,1.70
2022-09-05T07:57:42.884Z,1.45
2022-09-05T08:00:26.754Z,1.45
2022-09-05T08:03:13.398Z,1.45
2022-09-05T08:05:54.100Z,1.60
2022-09-05T08:08:27.654Z,1.70
2022-09-05T08:11:22.260Z,1.48
2022-09-05T08:14:43.753Z,1.42
2022-09-05T08:17:29.873Z,1.40
2022-09-05T08:20:42.383Z,1.02
2022-09-05T08:24:01.145Z,1.52
2022-09-05T08:26:49.616Z,1.40
2022-09-05T08:29:39.763Z,1.10
2022-09-05T08:32:16.997Z,1.10
2022-09-05T08:34:53.702Z,1.65
2022-09-05T08:37:27.760Z,1.20
2022-09-05T08:40:10.216Z,1.13
2022-09-05T08:43:42.918Z,1.10
2022-09-05T08:46:41.808Z,1.08
2022-09-05T08:49:46.399Z,0.93
2022-09-05T08:52:52.040Z,1.13
2022-09-05T08:55:30.731Z,1.05
2022-09-05T08:58:34.345Z,1.08
2022-09-05T09:01:44.563Z,0.80
2022-09-05T09:05:14.639Z,0.80
2022-09-05T09:08:21.908Z,0.80
2022-09-05T09:10:57.353Z,1.00
2022-09-05T09:13:52.770Z,1.33
2022-09-05T09:16:53.706Z,0.80
2022-09-05T09:19:30.735Z,1.02
2022-09-05T09:22:38.953Z,0.90
2022-09-05T09:25:35.026Z,0.80
2022-09-05T09:28:49.745Z,0.70
2022-09-05T09:32:17.149Z,0.90
2022-09-05T09:35:17.574Z,1.00
2022-09-05T09:38:19.724Z,0.77
2022-09-05T09:41:36.625Z,0.95
2022-09-05T09:45:27.836Z,0.80
2022-09-05T09:48:09.230Z,0.77
2022-09-05T09:51:14.905Z,0.70
2022-09-05T09:53:58.246Z,0.98
2022-09-05T09:57:00.297Z,0.70
2022-09-05T10:00:01.059Z,0.70
2022-09-05T10:08:10.669Z,0.98
2022-09-05T10:10:50.596Z,0.70
2022-09-05T10:11:08.802Z,1.00
2022-09-05T10:14:07.893Z,0.85
2022-09-05T10:17:32.649Z,0.80
2022-09-05T10:20:44.224Z,0.90
2022-09-05T10:23:55.331Z,1.38
2022-09-05T10:26:59.461Z,0.90
2022-09-05T10:29:47.249Z,0.75
2022-09-05T10:35:09.119Z,0.90
2022-09-05T10:35:43.325Z,0.50
2022-09-05T10:38:40.688Z,0.75
2022-09-05T10:41:22.173Z,0.80
2022-09-05T10:44:02.368Z,0.88
2022-09-05T10:47:14.279Z,0.57
2022-09-05T10:49:48.658Z,0.63
2022-09-05T10:52:36.883Z,0.98
2022-09-05T10:55:26.416Z,1.15
2022-09-05T11:01:59.335Z,0.70
2022-09-05T11:02:28.712Z,0.90
2022-09-05T11:05:09.721Z,1.33
2022-09-05T11:08:06.689Z,1.00
2022-09-05T11:10:54.889Z,0.80
2022-09-05T11:13:47.620Z,0.85
2022-09-05T11:16:31.331Z,0.60
2022-09-05T11:19:31.929Z,0.98
2022-09-05T11:22:23.108Z,0.77
2022-09-05T11:25:04.477Z,0.77
2022-09-05T11:27:41.350Z,0.70
2022-09-05T11:30:41.334Z,0.75
2022-09-05T11:39:46.606Z,0.80
2022-09-05T11:40:08.283Z,0.95
2022-09-05T11:41:05.370Z,0.68
2022-09-05T11:44:25.266Z,0.73
2022-09-05T11:47:31.781Z,0.75
2022-09-05T11:50:41.693Z,0.80
2022-09-05T11:53:31.187Z,0.93
2022-09-05T11:56:32.746Z,0.68
2022-09-05T11:59:33.330Z,0.73
2022-09-05T12:03:00.233Z,0.80
2022-09-05T12:06:07.507Z,1.00
2022-09-05T12:08:54.996Z,0.80
2022-09-05T12:12:02.888Z,0.50
2022-09-05T12:15:08.090Z,0.60
2022-09-05T12:18:00.665Z,0.82
2022-09-05T12:21:08.029Z,0.73
2022-09-05T12:25:23.690Z,0.70
2022-09-05T12:27:40.096Z,0.75
2022-09-05T12:30:13.892Z,1.10
2022-09-05T12:35:49.967Z,0.95
2022-09-05T12:40:56.525Z,0.88
2022-09-05T12:41:32.699Z,1.35
2022-09-05T12:44:06.050Z,1.23
2022-09-05T12:46:01.674Z,1.10
2022-09-05T12:49:07.315Z,0.80
2022-09-05T12:51:47.700Z,0.80
2022-09-05T12:54:47.186Z,0.65
2022-09-05T13:02:27.835Z,0.75
2022-09-05T13:03:12.048Z,0.82
2022-09-05T13:04:15.949Z,0.80
2022-09-05T13:07:07.362Z,0.75
2022-09-05T13:10:38.125Z,0.70
2022-09-05T13:14:48.007Z,0.70
2022-09-05T13:15:53.436Z,0.70
2022-09-05T13:18:28.592Z,1.17
2022-09-05T13:21:15.569Z,0.60
2022-09-05T13:24:18.773Z,0.90
2022-09-05T13:26:57.556Z,1.70
2022-09-05T13:33:26.807Z,1.00
2022-09-05T13:38:01.425Z,0.80
2022-09-05T13:38:04.070Z,0.90
2022-09-05T13:39:09.652Z,0.82
2022-09-05T13:41:53.179Z,0.70
2022-09-05T13:44:26.354Z,0.80
2022-09-05T13:47:29.509Z,0.73
2022-09-05T13:50:35.773Z,0.60
2022-09-05T13:53:37.141Z,0.80
2022-09-05T13:56:27.752Z,0.55
2022-09-05T13:59:08.114Z,1.00
2022-09-05T14:02:27.586Z,0.80
2022-09-05T14:05:51.759Z,0.60
2022-09-05T14:08:33.644Z,0.52
2022-09-05T14:11:51.963Z,0.70
2022-09-05T14:17:55.179Z,0.65
2022-09-05T14:20:49.475Z,0.80
2022-09-05T14:23:21.068Z,0.55
2022-09-05T14:26:00.043Z,0.80
2022-09-05T14:28:46.681Z,0.68
2022-09-05T14:34:30.934Z,0.90
2022-09-05T14:37:39.201Z,0.85
2022-09-05T14:38:16.186Z,0.52
2022-09-05T14:41:20.631Z,0.65
2022-09-05T14:44:25.651Z,0.60
2022-09-05T14:47:35.340Z,0.70
2022-09-05T14:50:39.555Z,0.73
2022-09-05T14:57:23.993Z,0.57
2022-09-05T15:02:39.014Z,0.60
2022-09-05T15:03:00.091Z,0.70
2022-09-05T15:05:28.793Z,0.77
2022-09-05T15:08:16.278Z,0.80
2022-09-05T15:12:24.351Z,0.95
2022-09-05T15:14:05.133Z,1.50
2022-09-05T15:16:43.517Z,4.93
2022-09-05T15:19:11.541Z,6.63
2022-09-05T15:21:41.165Z,4.05
2022-09-05T15:24:31.549Z,2.97
2022-09-05T15:27:00.461Z,1.95
2022-09-05T15:29:36.918Z,1.20
2022-09-05T15:32:30.332Z,0.95
2022-09-05T15:35:00.098Z,0.95
2022-09-05T15:37:40.423Z,1.50
2022-09-05T15:40:22.392Z,2.78
2022-09-05T15:43:16.510Z,2.00
2022-09-05T15:45:46.827Z,3.42
2022-09-05T15:48:23.783Z,2.05
2022-09-05T15:50:58.199Z,2.13
2022-09-05T15:53:37.440Z,7.20
2022-09-05T15:56:26.250Z,7.20
2022-09-05T15:58:59.345Z,6.07
2022-09-05T16:01:58.502Z,4.15
2022-09-05T16:10:29.524Z,2.25
2022-09-05T16:10:30.003Z,3.70
2022-09-05T16:10:38.384Z,3.28
2022-09-05T16:13:19.306Z,2.65
2022-09-05T16:21:15.693Z,1.50
2022-09-05T16:23:13.154Z,1.70
2022-09-05T16:23:29.141Z,1.20
2022-09-05T16:24:59.479Z,1.20
2022-09-05T16:27:58.621Z,1.67
2022-09-05T16:30:35.365Z,1.88
2022-09-05T16:33:17.571Z,2.78
2022-09-05T16:36:16.415Z,2.60
2022-09-05T16:38:50.607Z,2.33
2022-09-05T16:41:40.104Z,2.22
2022-09-05T16:44:35.529Z,1.52
2022-09-05T16:47:36.374Z,1.70
2022-09-05T16:50:22.902Z,1.92
2022-09-05T16:52:53.731Z,2.00
2022-09-05T16:55:42.889Z,1.85
2022-09-05T16:58:28.076Z,1.67
2022-09-05T17:02:05.483Z,2.72
2022-09-05T17:05:06.090Z,1.58
2022-09-05T17:08:08.161Z,1.80
2022-09-05T17:10:50.701Z,1.60
2022-09-05T17:13:55.441Z,1.10
2022-09-05T17:16:28.961Z,1.50
2022-09-05T17:18:59.788Z,1.25
2022-09-05T17:26:25.001Z,1.30
2022-09-05T17:29:16.841Z,1.13
2022-09-05T17:29:31.435Z,1.52
2022-09-05T17:33:49.728Z,2.42
2022-09-05T17:36:42.426Z,2.13
2022-09-05T17:40:08.273Z,1.52
2022-09-05T17:42:53.919Z,1.67
2022-09-05T17:45:29.811Z,1.17
2022-09-05T17:47:59.823Z,0.90
2022-09-05T17:50:28.063Z,1.10
2022-09-05T17:53:26.819Z,1.33
2022-09-05T17:55:50.683Z,1.23
2022-09-05T17:58:24.241Z,1.33
2022-09-05T18:00:51.229Z,1.70
2022-09-05T18:03:36.850Z,1.50
2022-09-05T18:06:14.992Z,1.38
2022-09-05T18:08:52.751Z,1.30
2022-09-05T18:11:25.678Z,2.10
2022-09-05T18:14:14.892Z,0.95
2022-09-05T18:17:35.493Z,2.10
2022-09-05T18:19:45.445Z,2.10
2022-09-05T18:22:40.496Z,1.65
2022-09-05T18:25:28.978Z,1.50
2022-09-05T18:28:19.358Z,1.60
2022-09-05T18:30:51.097Z,1.33
2022-09-05T18:33:54.256Z,1.30
2022-09-05T18:36:25.797Z,1.98
2022-09-05T18:39:23.379Z,1.90
2022-09-05T18:42:33.722Z,3.72
2022-09-05T18:45:15.566Z,2.95
2022-09-05T18:47:57.288Z,2.30
2022-09-05T18:50:32.355Z,2.00
2022-09-05T18:53:09.061Z,1.85
2022-09-05T18:56:20.380Z,1.10
2022-09-05T18:59:09.861Z,1.35
2022-09-05T19:01:54.934Z,1.50
2022-09-05T19:04:49.692Z,1.40
2022-09-05T19:07:26.868Z,1.20
2022-09-05T19:10:34.917Z,1.60
2022-09-05T19:13:40.887Z,1.90
2022-09-05T19:16:47.435Z,1.60
2022-09-05T19:19:24.435Z,1.35
2022-09-05T19:22:39.484Z,1.40
2022-09-05T19:24:48.913Z,0.93
2022-09-05T19:30:07.033Z,1.02
2022-09-05T19:36:55.345Z,1.10
2022-09-05T19:37:03.448Z,1.00
2022-09-05T19:37:05.768Z,1.00
2022-09-05T19:42:26.024Z,0.93
2022-09-05T19:47:26.165Z,1.00
2022-09-05T19:47:50.278Z,1.00
2022-09-05T19:50:30.880Z,1.30
2022-09-05T19:53:08.266Z,1.00
2022-09-05T19:55:39.360Z,1.08
2022-09-05T19:58:21.160Z,0.80
2022-09-05T20:01:02.013Z,0.88
2022-09-05T20:03:38.677Z,0.93
2022-09-05T20:06:29.188Z,0.85
2022-09-05T20:09:20.181Z,0.80
2022-09-05T20:11:50.379Z,1.05
2022-09-05T20:14:23.623Z,1.30
2022-09-05T20:16:54.278Z,1.38
2022-09-05T20:19:32.992Z,1.38
2022-09-05T20:22:47.070Z,1.38
2022-09-05T20:24:56.998Z,1.60
2022-09-05T20:27:29.588Z,1.27
2022-09-05T20:30:09.536Z,2.35
2022-09-05T20:32:49.827Z,1.52
2022-09-05T20:43:07.736Z,1.30
2022-09-05T20:43:20.297Z,1.40
2022-09-05T20:43:33.015Z,1.42
2022-09-05T20:44:24.777Z,1.10
2022-09-05T20:50:44.372Z,1.38
2022-09-05T20:54:18.861Z,1.17
2022-09-05T20:54:31.720Z,0.93
2022-09-05T20:56:30.852Z,1.10
2022-09-05T20:58:58.581Z,0.98
2022-09-05T21:01:27.117Z,1.02
2022-09-05T21:03:59.435Z,1.20
2022-09-05T21:06:35.442Z,0.93
2022-09-05T21:09:30.007Z,0.70
2022-09-05T21:11:59.846Z,0.90
2022-09-05T21:14:28.934Z,0.80
2022-09-05T21:17:06.684Z,0.85
2022-09-05T21:19:42.110Z,1.20
2022-09-05T21:22:17.452Z,0.93
2022-09-05T21:24:46.488Z,0.82
2022-09-05T21:27:21.861Z,1.10
2022-09-05T21:29:52.980Z,1.05
2022-09-05T21:32:27.984Z,0.90
2022-09-05T21:35:33.916Z,1.20
2022-09-05T21:37:54.042Z,1.25
2022-09-05T21:40:21.456Z,1.30
2022-09-05T21:47:33.264Z,1.67
2022-09-05T21:47:44.483Z,1.48
2022-09-05T21:48:24.317Z,1.52
2022-09-05T21:50:57.089Z,1.80
2022-09-05T21:56:41.560Z,1.58
2022-09-05T21:59:24.589Z,1.70
2022-09-05T21:59:40.085Z,1.52
2022-09-05T22:02:15.544Z,1.48
2022-09-05T22:04:42.933Z,2.15
2022-09-05T22:07:25.358Z,1.88
2022-09-05T22:10:00.271Z,1.80
2022-09-05T22:12:33.366Z,1.65
2022-09-05T22:15:11.690Z,1.90
2022-09-05T22:17:58.325Z,2.08
2022-09-05T22:20:42.839Z,1.40
2022-09-05T22:23:10.486Z,2.03
2022-09-05T22:25:38.873Z,1.85
2022-09-05T22:28:13.901Z,1.38
2022-09-05T22:30:40.637Z,1.75
2022-09-05T22:33:15.566Z,1.88
2022-09-05T22:35:42.337Z,1.70
2022-09-05T22:38:17.809Z,1.58
2022-09-05T22:40:49.323Z,1.23
2022-09-05T22:43:16.579Z,1.70
2022-09-05T22:45:43.444Z,1.30
2022-09-05T22:48:13.883Z,1.10
2022-09-05T22:50:42.654Z,1.00
2022-09-05T22:53:10.536Z,0.88
2022-09-05T22:55:41.390Z,0.80
2022-09-05T22:58:11.948Z,1.00
2022-09-05T23:00:38.956Z,1.00
2022-09-05T23:03:06.839Z,0.90
2022-09-05T23:05:34.356Z,0.95
2022-09-05T23:08:02.589Z,0.80
2022-09-05T23:10:30.600Z,0.70
2022-09-05T23:12:58.393Z,0.80
2022-09-05T23:15:25.851Z,0.80
2022-09-05T23:17:57.695Z,0.90
2022-09-05T23:20:28.023Z,1.00
2022-09-05T23:22:55.890Z,1.00
2022-09-05T23:25:23.679Z,0.90
2022-09-05T23:27:50.645Z,0.90
2022-09-05T23:30:18.077Z,0.90
2022-09-05T23:32:47.423Z,0.80
2022-09-05T23:35:16.856Z,0.80
2022-09-05T23:37:45.790Z,0.85
2022-09-05T23:40:14.880Z,0.70
2022-09-05T23:42:41.969Z,0.75
2022-09-05T23:45:09.947Z,0.70
2022-09-05T23:47:39.234Z,0.80
2022-09-05T23:50:07.855Z,0.90
2022-09-05T23:52:42.987Z,0.77
2022-09-05T23:55:15.300Z,0.70
2022-09-05T23:57:42.141Z,1.10
